• Join FlightAware (Why Join?)
  • Login
  • US Flag 
04:00AM EDT


 

Airport Tracker/Info


-or-


 

Live Flight TrackerFlight Track Log ✈ TMC493 ✈ 17-Aug-2013 ✈ 5B2 - KBLM

Flight Track Log - Related Links

Times and Time Zones

All times are in EDT time to prevent confusion due to time zone crossing. See the TMC493 flight status page for this flight to view local times or setup timezone preferences in your user account.

Time Position Orientation Groundspeed Altitude Reporting Facility
EDT Latitude Longitude Course Direction KTS MPH feet Rate Location/Type
10:13PM 43.0606 -73.8525 345° North 166 191 900  Level Boston Center
10:14PM 43.1022 -73.8675 345° North 191 220 4,000 3,000 Climbing Boston Center
10:15PM 43.0661 -73.9094 220° Southwest 213 245 6,800 3,180 Climbing Boston Center
10:16PM 43.0156 -73.9622 217° Southwest 232 267 9,900 2,580 Climbing Boston Center
10:17PM 42.9542 -74.0258 217° Southwest 269 310 12,200 2,580 Climbing Boston Center
10:18PM 42.8864 -74.0922 216° Southwest 300 345 15,200 1,860 Climbing Boston Center
10:19PM 42.8189 -74.1611 217° Southwest 300 345 16,000 360 Climbing Boston Center
10:20PM 42.7361 -74.2436 216° Southwest 348 400 16,000  Level Boston Center
10:21PM 42.6536 -74.3286 217° Southwest 376 433 16,000  Level Boston Center
10:22PM 42.5625 -74.4189 216° Southwest 396 456 16,000  Level Boston Center
10:23PM 42.4839 -74.4981 217° Southwest 396 456 16,000  Level Boston Center
10:24PM 42.3883 -74.5933 216° Southwest 396 456 16,100 900 Climbing Boston Center
10:25PM 42.3467 -74.7042 243° Southwest 365 420 17,800 900 Climbing Boston Center
10:26PM 42.3022 -74.8347 245° Southwest 375 432 18,000 60 Climbing Boston Center
10:27PM 42.2350 -74.9497 232° Southwest 384 442 18,000  Level Boston Center
10:29PM 41.9936 -75.1214 208° Southwest 409 471 18,000  Level New York Center
10:30PM 41.9039 -75.1850 208° Southwest 409 471 18,000  Level New York Center
10:31PM 41.8056 -75.2536 207° Southwest 414 476 18,000  Level New York Center
10:32PM 41.6964 -75.3297 208° Southwest 407 468 18,000 -60 Level New York Center
10:33PM 41.5978 -75.3978 207° Southwest 407 468 17,900 -540 Descending New York Center
10:34PM 41.5017 -75.4658 208° Southwest 407 468 17,000 -1,020 Descending New York Center
10:35PM 41.4236 -75.5408 216° Southwest 397 457 15,900 -1,860 Descending New York Center
10:36PM 41.3303 -75.6308 216° Southwest 386 444 13,300 -2,160 Descending New York Center
10:37PM 41.2317 -75.6514 189° South 357 411 11,600 -1,620 Descending New York Center
10:38PM 41.1375 -75.6611 184° South 357 411 10,100 -1,320 Descending New York Center
10:39PM 41.0561 -75.6633 181° South 326 375 9,000 -600 Descending New York Center
10:40PM 40.9853 -75.6667 182° South 290 334 9,000 -180 Level New York Center
10:41PM 40.9122 -75.6147 152° Southeast 266 306 8,700 -600 Descending New York Center
10:42PM 40.8525 -75.5500 141° Southeast 277 319 7,800 -1,020 Descending New York Center
10:43PM 40.7906 -75.4828 141° Southeast 282 325 6,700 -1,080 Descending New York Center
10:44PM 40.7306 -75.4183 141° Southeast 282 325 5,700 -900 Descending New York Center
10:45PM 40.6767 -75.3600 141° Southeast 276 318 5,000 -360 Descending New York Center
10:46PM 40.6186 -75.2986 141° Southeast 276 318 5,000  Level New York Center
10:47PM 40.5664 -75.2433 141° Southeast 270 311 5,000  Level New York Center
10:48PM 40.5103 -75.1822 140° Southeast 270 311 5,000  Level New York Center
10:49PM 40.4483 -75.1156 141° Southeast 270 311 5,000  Level New York Center
10:50PM 40.3900 -75.0547 142° Southeast 270 311 5,000 -300 Level New York Center
10:51PM 40.3361 -74.9942 139° Southeast 270 311 4,400 -840 Descending New York Center
10:52PM 40.2839 -74.9392 141° Southeast 270 311 3,400 -720 Descending New York Center
10:53PM 40.2508 -74.8639 120° Southeast 252 290 3,000 -240 Descending New York Center
10:54PM 40.2397 -74.7681 99° East 240 276 3,000 -60 Level New York Center
10:55PM 40.2361 -74.6861 93° East 240 276 2,900 -60 Descending New York Center
10:56PM 40.2267 -74.5986 98° East 240 276 2,900 -180 Level New York Center
10:57PM 40.2189 -74.5086 96° East 240 276 2,600 -480 Descending New York Center
10:58PM 40.2153 -74.4267 93° East 233 268 2,000 -300 Descending New York Center
10:59PM 40.2136 -74.3506 92° East 219 252 2,000 -180 Level New York Center
11:00PM 40.2139 -74.2692 90° East 213 245 1,700 -360 Descending New York Center
11:01PM 40.2136 -74.2119 90° East 178 205 1,300 -600 Descending New York Center
11:02PM 40.2106 -74.1656 95° East 143 165 600 2,820 Descending New York Center
11:03PM 40.1994 -74.1242 109° East 123 142 7,000 6,360 Climbing New York Center
11:05PM 40.1833 -74.1167 North  Level FlightAware Approximate
11:12PM 40.1867 -74.1246 North  Level Estimated